sensor_id;sensor_type;location;lat;lon;timestamp;P1;durP1;ratioP1;P2;durP2;ratioP2
28455;SDS011;15682;56.742;38.866;2023-08-01T00:00:09;21.0;;;9.4;;
28455;SDS011;15682;56.742;38.866;2023-08-01T00:02:09;16.6;;;9.8;;
28455;SDS011;15682;56.742;38.866;2023-08-01T00:04:10;14.8;;;8.9;;
28455;SDS011;15682;56.742;38.866;2023-08-01T00:06:10;22.3;;;8.9;;
28455;SDS011;15682;56.742;38.866;2023-08-01T00:08:10;15.6;;;9.1;;
28455;SDS011;15682;56.742;38.866;2023-08-01T00:10:11;21.7;;;8.9;;
28455;SDS011;15682;56.742;38.866;2023-08-01T00:12:11;14.1;;;8.1;;
28455;SDS011;15682;56.742;38.866;2023-08-01T00:14:11;15.0;;;7.6;;
28455;SDS011;15682;56.742;38.866;2023-08-01T00:16:11;14.7;;;6.6;;
28455;SDS011;15682;56.742;38.866;2023-08-01T00:18:12;13.2;;;6.6;;
28455;SDS011;15682;56.742;38.866;2023-08-01T00:20:12;15.2;;;7.0;;
28455;SDS011;15682;56.742;38.866;2023-08-01T00:22:12;16.3;;;7.5;;
28455;SDS011;15682;56.742;38.866;2023-08-01T00:24:12;18.4;;;8.2;;
28455;SDS011;15682;56.742;38.866;2023-08-01T00:26:13;21.8;;;8.0;;
28455;SDS011;15682;56.742;38.866;2023-08-01T00:28:13;13.3;;;7.6;;
28455;SDS011;15682;56.742;38.866;2023-08-01T00:30:13;16.1;;;6.8;;
28455;SDS011;15682;56.742;38.866;2023-08-01T00:32:13;17.8;;;7.3;;
28455;SDS011;15682;56.742;38.866;2023-08-01T00:34:14;15.7;;;6.9;;
28455;SDS011;15682;56.742;38.866;2023-08-01T00:36:14;15.8;;;5.5;;
28455;SDS011;15682;56.742;38.866;2023-08-01T00:38:14;16.0;;;6.4;;
28455;SDS011;15682;56.742;38.866;2023-08-01T00:40:14;15.0;;;5.7;;
28455;SDS011;15682;56.742;38.866;2023-08-01T00:42:15;13.1;;;4.9;;
28455;SDS011;15682;56.742;38.866;2023-08-01T00:44:15;11.1;;;4.9;;
28455;SDS011;15682;56.742;38.866;2023-08-01T00:46:15;13.0;;;5.4;;
28455;SDS011;15682;56.742;38.866;2023-08-01T00:48:15;11.6;;;4.9;;
28455;SDS011;15682;56.742;38.866;2023-08-01T00:50:16;16.6;;;4.6;;
28455;SDS011;15682;56.742;38.866;2023-08-01T00:52:16;11.3;;;4.2;;
28455;SDS011;15682;56.742;38.866;2023-08-01T00:54:16;13.2;;;4.3;;
28455;SDS011;15682;56.742;38.866;2023-08-01T00:56:16;9.3;;;4.6;;
28455;SDS011;15682;56.742;38.866;2023-08-01T00:58:17;14.5;;;4.3;;
28455;SDS011;15682;56.742;38.866;2023-08-01T01:00:17;13.4;;;3.7;;
28455;SDS011;15682;56.742;38.866;2023-08-01T01:02:17;10.1;;;4.2;;
28455;SDS011;15682;56.742;38.866;2023-08-01T01:04:17;11.8;;;4.4;;
28455;SDS011;15682;56.742;38.866;2023-08-01T01:06:19;10.5;;;4.1;;
28455;SDS011;15682;56.742;38.866;2023-08-01T01:08:18;10.0;;;4.3;;
28455;SDS011;15682;56.742;38.866;2023-08-01T01:10:18;16.7;;;4.5;;
28455;SDS011;15682;56.742;38.866;2023-08-01T01:12:18;12.8;;;4.3;;
28455;SDS011;15682;56.742;38.866;2023-08-01T01:14:19;12.3;;;4.1;;
28455;SDS011;15682;56.742;38.866;2023-08-01T01:16:19;9.5;;;4.0;;
28455;SDS011;15682;56.742;38.866;2023-08-01T01:18:19;11.1;;;3.9;;
28455;SDS011;15682;56.742;38.866;2023-08-01T01:20:20;12.3;;;4.0;;
28455;SDS011;15682;56.742;38.866;2023-08-01T01:22:20;12.7;;;4.2;;
28455;SDS011;15682;56.742;38.866;2023-08-01T01:24:20;11.2;;;3.9;;
28455;SDS011;15682;56.742;38.866;2023-08-01T01:26:20;8.8;;;4.0;;
28455;SDS011;15682;56.742;38.866;2023-08-01T01:28:20;8.6;;;3.6;;
28455;SDS011;15682;56.742;38.866;2023-08-01T01:30:21;10.3;;;4.1;;
28455;SDS011;15682;56.742;38.866;2023-08-01T01:32:21;9.7;;;4.0;;
28455;SDS011;15682;56.742;38.866;2023-08-01T01:34:21;12.3;;;4.1;;
28455;SDS011;15682;56.742;38.866;2023-08-01T01:36:22;14.1;;;4.4;;
28455;SDS011;15682;56.742;38.866;2023-08-01T01:38:22;12.4;;;3.8;;
28455;SDS011;15682;56.742;38.866;2023-08-01T01:40:22;12.5;;;4.0;;
28455;SDS011;15682;56.742;38.866;2023-08-01T01:42:22;13.9;;;3.8;;
28455;SDS011;15682;56.742;38.866;2023-08-01T01:44:23;11.3;;;4.1;;
28455;SDS011;15682;56.742;38.866;2023-08-01T01:46:23;13.4;;;3.9;;
28455;SDS011;15682;56.742;38.866;2023-08-01T01:48:23;12.6;;;4.2;;
28455;SDS011;15682;56.742;38.866;2023-08-01T01:50:23;9.3;;;4.1;;
28455;SDS011;15682;56.742;38.866;2023-08-01T01:52:24;8.8;;;4.6;;
28455;SDS011;15682;56.742;38.866;2023-08-01T01:54:24;11.0;;;4.3;;
28455;SDS011;15682;56.742;38.866;2023-08-01T01:56:24;14.1;;;4.8;;
28455;SDS011;15682;56.742;38.866;2023-08-01T01:58:24;15.1;;;5.4;;
28455;SDS011;15682;56.742;38.866;2023-08-01T02:00:25;12.8;;;6.2;;
28455;SDS011;15682;56.742;38.866;2023-08-01T02:02:25;17.2;;;7.0;;
28455;SDS011;15682;56.742;38.866;2023-08-01T02:04:25;16.7;;;8.1;;
28455;SDS011;15682;56.742;38.866;2023-08-01T02:06:25;19.7;;;8.8;;
28455;SDS011;15682;56.742;38.866;2023-08-01T02:08:26;20.6;;;8.4;;
28455;SDS011;15682;56.742;38.866;2023-08-01T02:10:26;16.1;;;7.2;;
28455;SDS011;15682;56.742;38.866;2023-08-01T02:12:26;16.6;;;7.7;;
28455;SDS011;15682;56.742;38.866;2023-08-01T02:14:26;15.1;;;6.6;;
28455;SDS011;15682;56.742;38.866;2023-08-01T02:16:27;13.9;;;6.2;;
28455;SDS011;15682;56.742;38.866;2023-08-01T02:18:27;13.9;;;6.1;;
28455;SDS011;15682;56.742;38.866;2023-08-01T02:20:27;19.1;;;6.0;;
28455;SDS011;15682;56.742;38.866;2023-08-01T02:22:27;16.9;;;6.3;;
28455;SDS011;15682;56.742;38.866;2023-08-01T02:24:28;20.1;;;6.4;;
28455;SDS011;15682;56.742;38.866;2023-08-01T02:26:28;16.9;;;6.4;;
28455;SDS011;15682;56.742;38.866;2023-08-01T02:28:28;16.8;;;6.4;;
28455;SDS011;15682;56.742;38.866;2023-08-01T02:30:29;19.9;;;6.1;;
28455;SDS011;15682;56.742;38.866;2023-08-01T02:32:29;16.0;;;6.9;;
28455;SDS011;15682;56.742;38.866;2023-08-01T02:34:29;20.0;;;8.0;;
28455;SDS011;15682;56.742;38.866;2023-08-01T02:36:29;17.8;;;8.2;;
28455;SDS011;15682;56.742;38.866;2023-08-01T02:38:30;20.9;;;8.2;;
28455;SDS011;15682;56.742;38.866;2023-08-01T02:40:30;13.9;;;6.2;;
28455;SDS011;15682;56.742;38.866;2023-08-01T02:42:30;13.6;;;5.8;;
28455;SDS011;15682;56.742;38.866;2023-08-01T02:44:30;15.0;;;5.3;;
28455;SDS011;15682;56.742;38.866;2023-08-01T02:46:31;10.0;;;4.7;;
28455;SDS011;15682;56.742;38.866;2023-08-01T02:48:31;12.9;;;4.8;;
28455;SDS011;15682;56.742;38.866;2023-08-01T02:50:31;13.5;;;4.9;;
28455;SDS011;15682;56.742;38.866;2023-08-01T02:52:32;12.7;;;5.1;;
28455;SDS011;15682;56.742;38.866;2023-08-01T02:54:32;11.3;;;4.5;;
28455;SDS011;15682;56.742;38.866;2023-08-01T02:56:32;18.3;;;10.4;;
28455;SDS011;15682;56.742;38.866;2023-08-01T02:58:32;18.8;;;12.7;;
28455;SDS011;15682;56.742;38.866;2023-08-01T03:00:33;24.5;;;17.4;;
28455;SDS011;15682;56.742;38.866;2023-08-01T03:02:33;35.4;;;28.0;;
28455;SDS011;15682;56.742;38.866;2023-08-01T03:04:33;44.9;;;28.3;;
28455;SDS011;15682;56.742;38.866;2023-08-01T03:06:34;45.0;;;29.6;;
28455;SDS011;15682;56.742;38.866;2023-08-01T03:08:34;41.8;;;31.0;;
28455;SDS011;15682;56.742;38.866;2023-08-01T03:10:34;52.9;;;40.7;;
28455;SDS011;15682;56.742;38.866;2023-08-01T03:12:35;33.7;;;23.6;;
28455;SDS011;15682;56.742;38.866;2023-08-01T03:14:35;33.6;;;19.5;;
28455;SDS011;15682;56.742;38.866;2023-08-01T03:16:35;24.1;;;14.9;;
28455;SDS011;15682;56.742;38.866;2023-08-01T03:18:36;27.6;;;14.0;;
28455;SDS011;15682;56.742;38.866;2023-08-01T03:20:36;20.1;;;12.1;;
28455;SDS011;15682;56.742;38.866;2023-08-01T03:22:37;18.7;;;9.8;;
28455;SDS011;15682;56.742;38.866;2023-08-01T03:24:37;21.4;;;7.1;;
28455;SDS011;15682;56.742;38.866;2023-08-01T03:26:37;23.4;;;7.5;;
28455;SDS011;15682;56.742;38.866;2023-08-01T03:28:37;16.2;;;6.2;;
28455;SDS011;15682;56.742;38.866;2023-08-01T03:30:38;14.5;;;6.1;;
28455;SDS011;15682;56.742;38.866;2023-08-01T03:32:39;13.2;;;5.3;;
28455;SDS011;15682;56.742;38.866;2023-08-01T03:34:38;12.4;;;4.4;;
28455;SDS011;15682;56.742;38.866;2023-08-01T03:36:39;11.1;;;4.8;;
28455;SDS011;15682;56.742;38.866;2023-08-01T03:38:39;9.3;;;4.0;;
28455;SDS011;15682;56.742;38.866;2023-08-01T03:40:40;11.0;;;3.7;;
28455;SDS011;15682;56.742;38.866;2023-08-01T03:42:40;13.8;;;3.9;;
28455;SDS011;15682;56.742;38.866;2023-08-01T03:44:40;13.7;;;3.8;;
28455;SDS011;15682;56.742;38.866;2023-08-01T03:46:41;11.2;;;4.0;;
28455;SDS011;15682;56.742;38.866;2023-08-01T03:48:41;11.3;;;3.4;;
28455;SDS011;15682;56.742;38.866;2023-08-01T03:50:42;19.2;;;4.5;;
28455;SDS011;15682;56.742;38.866;2023-08-01T03:52:42;14.8;;;3.5;;
28455;SDS011;15682;56.742;38.866;2023-08-01T03:54:43;14.1;;;3.7;;
28455;SDS011;15682;56.742;38.866;2023-08-01T03:56:43;16.0;;;3.6;;
28455;SDS011;15682;56.742;38.866;2023-08-01T03:58:44;16.9;;;3.7;;
28455;SDS011;15682;56.742;38.866;2023-08-01T04:00:44;16.4;;;3.5;;
28455;SDS011;15682;56.742;38.866;2023-08-01T04:02:45;15.1;;;3.4;;
28455;SDS011;15682;56.742;38.866;2023-08-01T04:04:46;16.3;;;3.8;;
28455;SDS011;15682;56.742;38.866;2023-08-01T04:06:46;9.3;;;3.3;;
28455;SDS011;15682;56.742;38.866;2023-08-01T04:08:47;11.7;;;3.4;;
28455;SDS011;15682;56.742;38.866;2023-08-01T04:10:48;13.2;;;3.6;;
28455;SDS011;15682;56.742;38.866;2023-08-01T04:12:48;12.7;;;3.3;;
28455;SDS011;15682;56.742;38.866;2023-08-01T04:14:49;12.6;;;3.8;;
28455;SDS011;15682;56.742;38.866;2023-08-01T04:16:49;8.9;;;3.7;;
28455;SDS011;15682;56.742;38.866;2023-08-01T04:18:50;9.1;;;3.9;;
28455;SDS011;15682;56.742;38.866;2023-08-01T04:20:51;15.1;;;4.7;;
28455;SDS011;15682;56.742;38.866;2023-08-01T04:22:52;11.9;;;4.2;;
28455;SDS011;15682;56.742;38.866;2023-08-01T04:24:52;13.3;;;4.9;;
28455;SDS011;15682;56.742;38.866;2023-08-01T04:26:53;13.5;;;5.9;;
28455;SDS011;15682;56.742;38.866;2023-08-01T04:28:54;18.9;;;7.2;;
28455;SDS011;15682;56.742;38.866;2023-08-01T04:30:55;15.2;;;8.4;;
28455;SDS011;15682;56.742;38.866;2023-08-01T04:32:55;13.5;;;7.9;;
28455;SDS011;15682;56.742;38.866;2023-08-01T04:34:56;19.0;;;8.1;;
28455;SDS011;15682;56.742;38.866;2023-08-01T04:36:57;24.2;;;8.4;;
28455;SDS011;15682;56.742;38.866;2023-08-01T04:38:58;24.3;;;9.0;;
28455;SDS011;15682;56.742;38.866;2023-08-01T04:40:59;26.6;;;9.2;;
28455;SDS011;15682;56.742;38.866;2023-08-01T04:43:00;18.1;;;6.8;;
28455;SDS011;15682;56.742;38.866;2023-08-01T04:45:00;26.9;;;6.6;;
28455;SDS011;15682;56.742;38.866;2023-08-01T04:47:01;15.0;;;5.2;;
28455;SDS011;15682;56.742;38.866;2023-08-01T04:49:02;17.0;;;5.1;;
28455;SDS011;15682;56.742;38.866;2023-08-01T04:51:03;16.1;;;4.4;;
28455;SDS011;15682;56.742;38.866;2023-08-01T04:53:03;14.5;;;3.8;;
28455;SDS011;15682;56.742;38.866;2023-08-01T04:55:05;20.3;;;4.6;;
28455;SDS011;15682;56.742;38.866;2023-08-01T04:57:05;17.0;;;4.3;;
28455;SDS011;15682;56.742;38.866;2023-08-01T04:59:06;29.6;;;5.2;;
28455;SDS011;15682;56.742;38.866;2023-08-01T05:01:07;21.6;;;4.4;;
28455;SDS011;15682;56.742;38.866;2023-08-01T05:03:07;20.1;;;4.6;;
28455;SDS011;15682;56.742;38.866;2023-08-01T05:05:08;13.5;;;4.8;;
28455;SDS011;15682;56.742;38.866;2023-08-01T05:07:09;21.3;;;4.7;;
28455;SDS011;15682;56.742;38.866;2023-08-01T05:09:10;15.7;;;4.8;;
28455;SDS011;15682;56.742;38.866;2023-08-01T05:11:11;22.3;;;4.9;;
28455;SDS011;15682;56.742;38.866;2023-08-01T05:13:12;21.7;;;4.8;;
28455;SDS011;15682;56.742;38.866;2023-08-01T05:15:13;16.5;;;4.4;;
28455;SDS011;15682;56.742;38.866;2023-08-01T05:17:13;14.1;;;4.7;;
28455;SDS011;15682;56.742;38.866;2023-08-01T05:19:14;17.7;;;4.9;;
28455;SDS011;15682;56.742;38.866;2023-08-01T05:21:15;16.8;;;4.5;;
28455;SDS011;15682;56.742;38.866;2023-08-01T05:23:16;17.3;;;4.8;;
28455;SDS011;15682;56.742;38.866;2023-08-01T05:25:17;11.8;;;4.4;;
28455;SDS011;15682;56.742;38.866;2023-08-01T05:27:18;15.7;;;4.1;;
28455;SDS011;15682;56.742;38.866;2023-08-01T05:29:19;11.9;;;4.3;;
28455;SDS011;15682;56.742;38.866;2023-08-01T05:31:20;19.2;;;4.2;;
28455;SDS011;15682;56.742;38.866;2023-08-01T05:33:21;8.9;;;3.8;;
28455;SDS011;15682;56.742;38.866;2023-08-01T05:35:21;10.6;;;3.7;;
28455;SDS011;15682;56.742;38.866;2023-08-01T05:37:22;6.8;;;3.7;;
28455;SDS011;15682;56.742;38.866;2023-08-01T05:39:23;13.3;;;3.5;;
28455;SDS011;15682;56.742;38.866;2023-08-01T05:41:24;9.7;;;3.4;;
28455;SDS011;15682;56.742;38.866;2023-08-01T05:43:25;10.7;;;3.5;;
28455;SDS011;15682;56.742;38.866;2023-08-01T05:45:26;23.4;;;4.0;;
28455;SDS011;15682;56.742;38.866;2023-08-01T05:47:27;10.7;;;3.6;;
28455;SDS011;15682;56.742;38.866;2023-08-01T05:49:28;15.9;;;4.0;;
28455;SDS011;15682;56.742;38.866;2023-08-01T05:51:29;10.7;;;4.0;;
28455;SDS011;15682;56.742;38.866;2023-08-01T05:53:30;14.7;;;3.3;;
28455;SDS011;15682;56.742;38.866;2023-08-01T05:55:31;13.2;;;3.4;;
28455;SDS011;15682;56.742;38.866;2023-08-01T05:57:32;10.6;;;4.2;;
28455;SDS011;15682;56.742;38.866;2023-08-01T05:59:32;10.0;;;3.9;;
28455;SDS011;15682;56.742;38.866;2023-08-01T06:01:33;8.0;;;3.0;;
28455;SDS011;15682;56.742;38.866;2023-08-01T06:03:34;10.9;;;3.4;;
28455;SDS011;15682;56.742;38.866;2023-08-01T06:05:35;8.6;;;3.0;;
28455;SDS011;15682;56.742;38.866;2023-08-01T06:07:36;12.0;;;3.5;;
28455;SDS011;15682;56.742;38.866;2023-08-01T06:09:37;9.1;;;2.9;;
28455;SDS011;15682;56.742;38.866;2023-08-01T06:11:39;8.2;;;2.9;;
28455;SDS011;15682;56.742;38.866;2023-08-01T06:13:39;14.9;;;3.5;;
28455;SDS011;15682;56.742;38.866;2023-08-01T06:15:40;7.2;;;3.5;;
28455;SDS011;15682;56.742;38.866;2023-08-01T06:17:41;8.4;;;3.2;;
28455;SDS011;15682;56.742;38.866;2023-08-01T06:19:42;7.5;;;3.2;;
28455;SDS011;15682;56.742;38.866;2023-08-01T06:21:43;8.4;;;3.0;;
28455;SDS011;15682;56.742;38.866;2023-08-01T06:23:44;11.1;;;3.3;;
28455;SDS011;15682;56.742;38.866;2023-08-01T06:25:45;10.2;;;3.0;;
28455;SDS011;15682;56.742;38.866;2023-08-01T06:27:46;12.4;;;3.0;;
28455;SDS011;15682;56.742;38.866;2023-08-01T06:29:47;6.2;;;3.0;;
28455;SDS011;15682;56.742;38.866;2023-08-01T06:31:48;8.8;;;3.2;;
28455;SDS011;15682;56.742;38.866;2023-08-01T06:33:49;11.1;;;2.9;;
28455;SDS011;15682;56.742;38.866;2023-08-01T06:35:50;13.1;;;3.0;;
28455;SDS011;15682;56.742;38.866;2023-08-01T06:37:51;8.6;;;2.7;;
28455;SDS011;15682;56.742;38.866;2023-08-01T06:39:52;5.7;;;2.8;;
28455;SDS011;15682;56.742;38.866;2023-08-01T06:41:53;8.2;;;2.7;;
28455;SDS011;15682;56.742;38.866;2023-08-01T06:43:54;7.5;;;2.8;;
28455;SDS011;15682;56.742;38.866;2023-08-01T06:45:55;11.7;;;3.2;;
28455;SDS011;15682;56.742;38.866;2023-08-01T06:47:56;9.6;;;3.1;;
28455;SDS011;15682;56.742;38.866;2023-08-01T06:49:56;10.5;;;3.5;;
28455;SDS011;15682;56.742;38.866;2023-08-01T06:51:58;5.8;;;2.8;;
28455;SDS011;15682;56.742;38.866;2023-08-01T06:53:58;10.7;;;3.0;;
28455;SDS011;15682;56.742;38.866;2023-08-01T06:55:59;9.4;;;2.7;;
28455;SDS011;15682;56.742;38.866;2023-08-01T06:58:00;8.7;;;2.5;;
28455;SDS011;15682;56.742;38.866;2023-08-01T07:00:01;6.9;;;2.8;;
28455;SDS011;15682;56.742;38.866;2023-08-01T07:02:02;8.7;;;3.2;;
28455;SDS011;15682;56.742;38.866;2023-08-01T07:04:03;8.1;;;2.8;;
28455;SDS011;15682;56.742;38.866;2023-08-01T07:06:04;8.8;;;2.8;;
28455;SDS011;15682;56.742;38.866;2023-08-01T07:08:05;5.6;;;2.7;;
28455;SDS011;15682;56.742;38.866;2023-08-01T07:10:07;7.2;;;2.7;;
28455;SDS011;15682;56.742;38.866;2023-08-01T07:12:07;7.4;;;2.5;;
28455;SDS011;15682;56.742;38.866;2023-08-01T07:14:08;7.7;;;2.6;;
28455;SDS011;15682;56.742;38.866;2023-08-01T07:16:09;11.8;;;2.8;;
28455;SDS011;15682;56.742;38.866;2023-08-01T07:18:10;8.7;;;2.8;;
28455;SDS011;15682;56.742;38.866;2023-08-01T07:20:11;12.3;;;3.2;;
28455;SDS011;15682;56.742;38.866;2023-08-01T07:22:12;13.7;;;3.2;;
28455;SDS011;15682;56.742;38.866;2023-08-01T07:24:13;5.6;;;3.1;;
28455;SDS011;15682;56.742;38.866;2023-08-01T07:26:14;8.0;;;2.8;;
28455;SDS011;15682;56.742;38.866;2023-08-01T07:28:14;8.0;;;2.7;;
28455;SDS011;15682;56.742;38.866;2023-08-01T07:30:15;7.8;;;3.0;;
28455;SDS011;15682;56.742;38.866;2023-08-01T07:32:17;8.3;;;3.1;;
28455;SDS011;15682;56.742;38.866;2023-08-01T07:34:17;5.5;;;2.4;;
28455;SDS011;15682;56.742;38.866;2023-08-01T07:36:18;6.2;;;2.5;;
28455;SDS011;15682;56.742;38.866;2023-08-01T07:38:19;5.0;;;3.1;;
28455;SDS011;15682;56.742;38.866;2023-08-01T07:40:20;7.2;;;3.1;;
28455;SDS011;15682;56.742;38.866;2023-08-01T07:42:20;7.5;;;2.7;;
28455;SDS011;15682;56.742;38.866;2023-08-01T07:44:21;5.2;;;3.0;;
28455;SDS011;15682;56.742;38.866;2023-08-01T07:46:22;4.7;;;3.0;;
28455;SDS011;15682;56.742;38.866;2023-08-01T07:48:23;6.9;;;2.9;;
28455;SDS011;15682;56.742;38.866;2023-08-01T07:50:23;6.2;;;3.3;;
28455;SDS011;15682;56.742;38.866;2023-08-01T07:52:24;6.5;;;2.7;;
28455;SDS011;15682;56.742;38.866;2023-08-01T07:54:25;6.2;;;2.6;;
28455;SDS011;15682;56.742;38.866;2023-08-01T07:56:25;5.2;;;2.6;;
28455;SDS011;15682;56.742;38.866;2023-08-01T07:58:26;5.7;;;2.6;;
28455;SDS011;15682;56.742;38.866;2023-08-01T08:00:27;7.4;;;3.0;;
28455;SDS011;15682;56.742;38.866;2023-08-01T08:02:27;7.5;;;2.7;;
28455;SDS011;15682;56.742;38.866;2023-08-01T08:04:28;15.0;;;3.0;;
28455;SDS011;15682;56.742;38.866;2023-08-01T08:06:29;10.0;;;2.7;;
28455;SDS011;15682;56.742;38.866;2023-08-01T08:08:29;8.3;;;3.0;;
28455;SDS011;15682;56.742;38.866;2023-08-01T08:10:30;10.5;;;2.7;;
28455;SDS011;15682;56.742;38.866;2023-08-01T08:12:31;15.3;;;2.7;;
28455;SDS011;15682;56.742;38.866;2023-08-01T08:14:31;7.6;;;2.4;;
28455;SDS011;15682;56.742;38.866;2023-08-01T08:16:32;8.1;;;2.4;;
28455;SDS011;15682;56.742;38.866;2023-08-01T08:18:32;7.1;;;2.4;;
28455;SDS011;15682;56.742;38.866;2023-08-01T08:20:39;6.1;;;2.5;;
28455;SDS011;15682;56.742;38.866;2023-08-01T08:22:33;8.3;;;2.6;;
28455;SDS011;15682;56.742;38.866;2023-08-01T08:24:34;9.8;;;2.8;;
28455;SDS011;15682;56.742;38.866;2023-08-01T08:26:35;7.3;;;2.4;;
28455;SDS011;15682;56.742;38.866;2023-08-01T08:28:36;5.6;;;2.8;;
28455;SDS011;15682;56.742;38.866;2023-08-01T08:30:36;7.3;;;2.6;;
28455;SDS011;15682;56.742;38.866;2023-08-01T08:32:36;6.4;;;2.7;;
28455;SDS011;15682;56.742;38.866;2023-08-01T08:34:37;6.8;;;2.3;;
28455;SDS011;15682;56.742;38.866;2023-08-01T08:36:38;4.9;;;2.5;;
28455;SDS011;15682;56.742;38.866;2023-08-01T08:38:38;7.4;;;2.4;;
28455;SDS011;15682;56.742;38.866;2023-08-01T08:40:40;7.0;;;2.7;;
28455;SDS011;15682;56.742;38.866;2023-08-01T08:42:40;7.3;;;2.7;;
28455;SDS011;15682;56.742;38.866;2023-08-01T08:44:42;7.0;;;2.5;;
28455;SDS011;15682;56.742;38.866;2023-08-01T08:46:41;4.9;;;2.4;;
28455;SDS011;15682;56.742;38.866;2023-08-01T08:48:41;5.2;;;2.4;;
28455;SDS011;15682;56.742;38.866;2023-08-01T08:50:42;22.6;;;3.3;;
28455;SDS011;15682;56.742;38.866;2023-08-01T08:52:42;13.7;;;3.4;;
28455;SDS011;15682;56.742;38.866;2023-08-01T08:54:43;7.7;;;2.4;;
28455;SDS011;15682;56.742;38.866;2023-08-01T08:56:44;11.4;;;2.4;;
28455;SDS011;15682;56.742;38.866;2023-08-01T08:58:44;9.3;;;2.6;;
28455;SDS011;15682;56.742;38.866;2023-08-01T09:00:45;9.5;;;3.2;;
28455;SDS011;15682;56.742;38.866;2023-08-01T09:02:45;6.8;;;3.0;;
28455;SDS011;15682;56.742;38.866;2023-08-01T09:04:46;8.5;;;2.5;;
28455;SDS011;15682;56.742;38.866;2023-08-01T09:06:48;20.3;;;2.9;;
28455;SDS011;15682;56.742;38.866;2023-08-01T09:08:49;15.9;;;3.0;;
28455;SDS011;15682;56.742;38.866;2023-08-01T09:10:48;8.9;;;2.7;;
28455;SDS011;15682;56.742;38.866;2023-08-01T09:12:48;15.3;;;2.9;;
28455;SDS011;15682;56.742;38.866;2023-08-01T09:14:49;10.4;;;2.6;;
28455;SDS011;15682;56.742;38.866;2023-08-01T09:16:50;4.8;;;2.4;;
28455;SDS011;15682;56.742;38.866;2023-08-01T09:18:50;7.4;;;2.7;;
28455;SDS011;15682;56.742;38.866;2023-08-01T09:20:51;7.3;;;2.6;;
28455;SDS011;15682;56.742;38.866;2023-08-01T09:22:51;8.3;;;3.1;;
28455;SDS011;15682;56.742;38.866;2023-08-01T09:24:52;5.9;;;2.5;;
28455;SDS011;15682;56.742;38.866;2023-08-01T09:26:52;4.4;;;2.6;;
28455;SDS011;15682;56.742;38.866;2023-08-01T09:28:56;6.4;;;2.5;;
28455;SDS011;15682;56.742;38.866;2023-08-01T09:30:54;8.8;;;2.4;;
28455;SDS011;15682;56.742;38.866;2023-08-01T09:32:55;9.0;;;2.5;;
28455;SDS011;15682;56.742;38.866;2023-08-01T09:34:58;8.6;;;2.7;;
28455;SDS011;15682;56.742;38.866;2023-08-01T09:36:59;14.9;;;3.2;;
28455;SDS011;15682;56.742;38.866;2023-08-01T09:38:59;20.4;;;3.1;;
28455;SDS011;15682;56.742;38.866;2023-08-01T09:40:56;12.8;;;2.8;;
28455;SDS011;15682;56.742;38.866;2023-08-01T09:43:00;13.3;;;3.0;;
28455;SDS011;15682;56.742;38.866;2023-08-01T09:44:57;9.2;;;3.1;;
28455;SDS011;15682;56.742;38.866;2023-08-01T09:46:58;8.8;;;3.8;;
28455;SDS011;15682;56.742;38.866;2023-08-01T09:49:06;14.1;;;3.3;;
28455;SDS011;15682;56.742;38.866;2023-08-01T09:51:07;9.2;;;3.0;;
28455;SDS011;15682;56.742;38.866;2023-08-01T09:53:07;14.4;;;3.0;;
28455;SDS011;15682;56.742;38.866;2023-08-01T09:55:00;9.1;;;2.7;;
28455;SDS011;15682;56.742;38.866;2023-08-01T09:57:01;7.2;;;2.4;;
28455;SDS011;15682;56.742;38.866;2023-08-01T09:59:01;6.6;;;2.5;;
28455;SDS011;15682;56.742;38.866;2023-08-01T10:01:02;6.0;;;2.5;;
28455;SDS011;15682;56.742;38.866;2023-08-01T10:03:03;4.4;;;2.4;;
28455;SDS011;15682;56.742;38.866;2023-08-01T10:05:03;4.6;;;2.5;;
28455;SDS011;15682;56.742;38.866;2023-08-01T10:07:05;8.8;;;2.5;;
28455;SDS011;15682;56.742;38.866;2023-08-01T10:09:04;7.6;;;2.6;;
28455;SDS011;15682;56.742;38.866;2023-08-01T10:11:05;10.5;;;2.6;;
28455;SDS011;15682;56.742;38.866;2023-08-01T10:13:05;6.0;;;2.5;;
28455;SDS011;15682;56.742;38.866;2023-08-01T10:15:06;13.5;;;2.8;;
28455;SDS011;15682;56.742;38.866;2023-08-01T10:17:06;6.9;;;2.7;;
28455;SDS011;15682;56.742;38.866;2023-08-01T10:19:07;7.8;;;2.6;;
28455;SDS011;15682;56.742;38.866;2023-08-01T10:21:08;4.1;;;2.4;;
28455;SDS011;15682;56.742;38.866;2023-08-01T10:23:09;18.1;;;3.6;;
28455;SDS011;15682;56.742;38.866;2023-08-01T10:25:09;8.1;;;2.9;;
28455;SDS011;15682;56.742;38.866;2023-08-01T10:27:11;5.6;;;2.2;;
28455;SDS011;15682;56.742;38.866;2023-08-01T10:29:10;6.1;;;2.2;;
28455;SDS011;15682;56.742;38.866;2023-08-01T10:31:11;10.0;;;2.8;;
28455;SDS011;15682;56.742;38.866;2023-08-01T10:33:11;6.6;;;2.6;;
28455;SDS011;15682;56.742;38.866;2023-08-01T10:35:12;8.2;;;3.0;;
28455;SDS011;15682;56.742;38.866;2023-08-01T10:37:12;6.9;;;2.7;;
28455;SDS011;15682;56.742;38.866;2023-08-01T10:39:20;7.6;;;2.3;;
28455;SDS011;15682;56.742;38.866;2023-08-01T10:41:21;11.6;;;2.9;;
28455;SDS011;15682;56.742;38.866;2023-08-01T10:43:21;7.8;;;2.3;;
28455;SDS011;15682;56.742;38.866;2023-08-01T10:45:22;6.3;;;2.1;;
28455;SDS011;15682;56.742;38.866;2023-08-01T10:47:15;5.4;;;2.2;;
28455;SDS011;15682;56.742;38.866;2023-08-01T10:49:16;6.7;;;2.4;;
28455;SDS011;15682;56.742;38.866;2023-08-01T10:51:16;3.4;;;2.3;;
28455;SDS011;15682;56.742;38.866;2023-08-01T10:53:17;6.8;;;2.5;;
28455;SDS011;15682;56.742;38.866;2023-08-01T10:55:17;4.5;;;2.4;;
28455;SDS011;15682;56.742;38.866;2023-08-01T10:57:18;5.5;;;2.5;;
28455;SDS011;15682;56.742;38.866;2023-08-01T10:59:19;6.7;;;2.6;;
28455;SDS011;15682;56.742;38.866;2023-08-01T11:01:19;6.7;;;2.5;;
28455;SDS011;15682;56.742;38.866;2023-08-01T11:03:20;5.7;;;2.4;;
28455;SDS011;15682;56.742;38.866;2023-08-01T11:05:20;6.7;;;2.3;;
28455;SDS011;15682;56.742;38.866;2023-08-01T11:07:21;5.9;;;2.5;;
28455;SDS011;15682;56.742;38.866;2023-08-01T11:09:22;9.1;;;2.7;;
28455;SDS011;15682;56.742;38.866;2023-08-01T11:11:22;9.5;;;2.6;;
28455;SDS011;15682;56.742;38.866;2023-08-01T11:13:22;8.3;;;2.7;;
28455;SDS011;15682;56.742;38.866;2023-08-01T11:15:23;12.0;;;2.9;;
28455;SDS011;15682;56.742;38.866;2023-08-01T11:17:23;8.5;;;2.9;;
28455;SDS011;15682;56.742;38.866;2023-08-01T11:19:24;10.4;;;3.1;;
28455;SDS011;15682;56.742;38.866;2023-08-01T11:21:26;8.2;;;3.1;;
28455;SDS011;15682;56.742;38.866;2023-08-01T11:23:28;12.4;;;4.0;;
28455;SDS011;15682;56.742;38.866;2023-08-01T11:25:33;10.2;;;3.4;;
28455;SDS011;15682;56.742;38.866;2023-08-01T11:27:26;12.2;;;3.2;;
28455;SDS011;15682;56.742;38.866;2023-08-01T11:29:27;7.3;;;2.6;;
28455;SDS011;15682;56.742;38.866;2023-08-01T11:31:27;5.0;;;2.5;;
28455;SDS011;15682;56.742;38.866;2023-08-01T11:33:28;5.3;;;2.4;;
28455;SDS011;15682;56.742;38.866;2023-08-01T11:35:28;7.0;;;2.4;;
28455;SDS011;15682;56.742;38.866;2023-08-01T11:37:29;6.5;;;2.7;;
28455;SDS011;15682;56.742;38.866;2023-08-01T11:39:29;10.4;;;3.0;;
28455;SDS011;15682;56.742;38.866;2023-08-01T11:41:30;7.3;;;2.5;;
28455;SDS011;15682;56.742;38.866;2023-08-01T11:43:37;4.4;;;2.3;;
28455;SDS011;15682;56.742;38.866;2023-08-01T11:45:31;6.9;;;2.5;;
28455;SDS011;15682;56.742;38.866;2023-08-01T11:47:32;7.8;;;2.7;;
28455;SDS011;15682;56.742;38.866;2023-08-01T11:49:32;9.6;;;3.4;;
28455;SDS011;15682;56.742;38.866;2023-08-01T11:51:38;6.9;;;4.1;;
28455;SDS011;15682;56.742;38.866;2023-08-01T11:53:33;8.2;;;4.3;;
28455;SDS011;15682;56.742;38.866;2023-08-01T11:55:34;6.3;;;3.8;;
28455;SDS011;15682;56.742;38.866;2023-08-01T11:57:35;5.6;;;3.3;;
28455;SDS011;15682;56.742;38.866;2023-08-01T11:59:35;9.1;;;3.8;;
28455;SDS011;15682;56.742;38.866;2023-08-01T12:01:39;10.1;;;3.4;;
28455;SDS011;15682;56.742;38.866;2023-08-01T12:03:44;14.3;;;3.9;;
28455;SDS011;15682;56.742;38.866;2023-08-01T12:05:37;8.1;;;3.2;;
28455;SDS011;15682;56.742;38.866;2023-08-01T12:07:37;6.0;;;3.1;;
28455;SDS011;15682;56.742;38.866;2023-08-01T12:09:38;9.5;;;2.6;;